Time;durP1;ratioP1;P1;durP2;ratioP2;P2;SDS_P1;SDS_P2;PMS_P1;PMS_P2;Temp;Humidity;BMP_temperature;BMP_pressure;BME280_temperature;BME280_humidity;BME280_pressure;Samples;Min_cycle;Max_cycle;Signal;HPM_P1;HPM_P2
2023/05/16 00:00:05;;;;;;;14.88;3.83;;;;;;;9.40;100.00;163020.94;5071487;28;20041;-61
2023/05/16 00:02:31;;;;;;;12.52;3.65;;;;;;;9.36;100.00;163011.50;5072554;28;20459;-60
2023/05/16 00:04:56;;;;;;;13.32;4.43;;;;;;;9.37;100.00;163014.22;5072128;28;20049;-62
2023/05/16 00:07:22;;;;;;;15.63;5.93;;;;;;;9.31;100.00;162998.03;5073237;28;20391;-61
2023/05/16 00:09:47;;;;;;;8.43;3.55;;;;;;;9.36;100.00;163011.50;5071330;28;20048;-62
2023/05/16 00:12:13;;;;;;;14.82;4.45;;;;;;;9.43;100.00;163030.38;5072757;28;20471;-62
2023/05/16 00:14:38;;;;;;;10.18;3.40;;;;;;;9.38;100.00;163016.91;5071691;28;20453;-63
2023/05/16 00:17:10;;;;;;;26.40;5.07;;;;;;;9.39;100.00;163018.25;5072911;28;20028;-62
2023/05/16 00:19:35;;;;;;;10.45;5.57;;;;;;;9.39;100.00;163018.25;5071566;28;20036;-62
2023/05/16 00:22:01;;;;;;;37.92;5.95;;;;;;;9.39;100.00;163018.25;5072667;28;20066;-59
2023/05/16 00:24:26;;;;;;;9.88;3.60;;;;;;;9.37;100.00;163014.22;5071149;28;20033;-61
2023/05/16 00:26:51;;;;;;;16.95;4.70;;;;;;;9.38;100.00;163016.91;5073004;28;20549;-60
2023/05/16 00:29:17;;;;;;;23.88;6.53;;;;;;;9.32;100.00;163000.75;5071618;28;20587;-60
2023/05/16 00:31:42;;;;;;;7.28;3.88;;;;;;;9.18;100.00;162965.69;5072358;28;20028;-60
2023/05/16 00:34:07;;;;;;;15.65;6.28;;;;;;;9.19;100.00;162968.38;5071451;28;20029;-60
2023/05/16 00:36:34;;;;;;;31.75;9.50;;;;;;;9.14;100.00;162954.88;5072161;28;20024;-60
2023/05/16 00:39:00;;;;;;;19.17;5.63;;;;;;;9.14;100.00;162954.88;5070940;28;20460;-60
2023/05/16 00:41:25;;;;;;;18.63;6.60;;;;;;;9.08;100.00;162937.38;5072750;28;20024;-60
2023/05/16 00:43:51;;;;;;;26.92;7.85;;;;;;;9.05;100.00;162930.59;5071224;28;20036;-60
2023/05/16 00:46:16;;;;;;;26.02;7.78;;;;;;;9.03;100.00;162925.22;5072539;28;20364;-60
2023/05/16 00:48:41;;;;;;;18.17;4.55;;;;;;;8.94;100.00;162900.94;5070977;28;20536;-60
2023/05/16 00:51:08;;;;;;;16.20;4.57;;;;;;;8.92;100.00;162895.53;5072007;28;20036;-60
2023/05/16 00:53:34;;;;;;;23.45;6.65;;;;;;;8.92;100.00;162895.53;5069755;28;20082;-60
2023/05/16 00:56:00;;;;;;;18.25;5.03;;;;;;;8.86;100.00;162880.75;5072607;28;20024;-59
2023/05/16 00:58:28;;;;;;;14.63;7.80;;;;;;;8.77;100.00;162856.47;5072023;28;20486;-60
2023/05/16 01:00:55;;;;;;;20.77;4.72;;;;;;;8.75;100.00;162852.38;5070670;28;20057;-60
2023/05/16 01:03:21;;;;;;;30.08;7.50;;;;;;;8.64;100.00;162822.75;5072209;28;20665;-59
2023/05/16 01:05:48;;;;;;;20.15;5.72;;;;;;;8.61;100.00;162814.63;5070319;28;20086;-59
2023/05/16 01:08:14;;;;;;;11.57;5.75;;;;;;;8.61;100.00;162814.63;5072247;28;20105;-61
2023/05/16 01:10:48;;;;;;;12.00;3.65;;;;;;;8.59;100.00;162809.28;5070206;28;20450;-60
2023/05/16 01:13:31;;;;;;;19.17;5.72;;;;;;;8.52;100.00;162793.09;5072076;28;20120;-60
2023/05/16 01:16:08;;;;;;;17.58;4.63;;;;;;;8.42;100.00;162766.09;5070310;28;20053;-60
2023/05/16 01:18:49;;;;;;;23.08;6.40;;;;;;;8.32;100.00;162739.09;5070448;28;20467;-60
2023/05/16 01:21:24;;;;;;;15.00;6.03;;;;;;;8.28;100.00;162728.34;5072179;28;20028;-60
2023/05/16 01:24:06;;;;;;;24.58;6.18;;;;;;;8.20;100.00;162708.09;5070335;28;20062;-60
2023/05/16 01:26:32;;;;;;;16.80;5.75;;;;;;;8.19;100.00;162705.44;5051724;28;20029;-60
2023/05/16 01:28:58;;;;;;;19.58;6.35;;;;;;;8.18;100.00;162704.06;5050581;28;20120;-57
2023/05/16 01:31:24;;;;;;;23.98;6.38;;;;;;;8.13;100.00;162690.63;5051367;28;20112;-57
2023/05/16 01:33:49;;;;;;;12.88;6.25;;;;;;;8.08;100.00;162677.09;5050278;28;20040;-58
2023/05/16 01:36:23;;;;;;;21.73;5.22;;;;;;;8.07;100.00;162674.44;5051582;28;20028;-58
2023/05/16 01:38:58;;;;;;;18.63;5.68;;;;;;;7.98;100.00;162650.19;5050788;28;20033;-58
2023/05/16 01:41:34;;;;;;;21.48;5.70;;;;;;;7.93;100.00;162639.38;5071643;28;20031;-58
2023/05/16 01:44:03;;;;;;;16.45;5.07;;;;;;;7.91;100.00;162632.63;5069693;28;20064;-57
2023/05/16 01:46:36;;;;;;;21.58;6.97;;;;;;;7.91;100.00;162634.00;5070902;28;20450;-58
2023/05/16 01:49:25;;;;;;;15.85;4.63;;;;;;;7.85;100.00;162617.84;5069992;28;20033;-58
2023/05/16 01:51:59;;;;;;;31.48;8.70;;;;;;;7.82;100.00;162609.75;5071340;28;20056;-59
2023/05/16 01:54:26;;;;;;;20.77;5.68;;;;;;;7.80;100.00;162604.34;5069362;28;20108;-59
2023/05/16 01:56:54;;;;;;;17.57;8.30;;;;;;;7.80;100.00;162604.34;5058737;28;20049;-59
2023/05/16 01:59:22;;;;;;;9.47;3.73;;;;;;;7.78;100.00;162599.00;5057406;28;20586;-58
2023/05/16 02:01:47;;;;;;;21.92;5.32;;;;;;;7.73;100.00;162586.88;5070478;28;20449;-58
2023/05/16 02:04:14;;;;;;;26.83;5.63;;;;;;;7.72;100.00;162582.78;5069438;28;20525;-58
2023/05/16 02:06:40;;;;;;;17.38;5.20;;;;;;;7.65;100.00;162565.31;5070997;28;20479;-58
2023/05/16 02:09:05;;;;;;;24.88;6.72;;;;;;;7.67;100.00;162570.66;5069331;28;20055;-59
2023/05/16 02:11:31;;;;;;;20.83;5.65;;;;;;;7.65;100.00;162563.94;5070442;28;20036;-58
2023/05/16 02:13:56;;;;;;;19.50;7.88;;;;;;;7.61;100.00;162555.88;5069619;28;20458;-58
2023/05/16 02:16:22;;;;;;;29.60;8.10;;;;;;;7.62;100.00;162557.19;5070855;28;20032;-59
2023/05/16 02:18:47;;;;;;;19.58;4.97;;;;;;;7.58;100.00;162547.75;5069249;28;20134;-58
2023/05/16 02:21:12;;;;;;;21.05;7.25;;;;;;;7.48;100.00;162520.84;5071183;28;20028;-58
2023/05/16 02:23:38;;;;;;;26.83;7.13;;;;;;;7.49;100.00;162523.50;5068641;28;20499;-57
2023/05/16 02:26:03;;;;;;;18.15;6.88;;;;;;;7.47;100.00;162518.16;5070530;28;20078;-58
2023/05/16 02:28:29;;;;;;;11.23;3.80;;;;;;;7.42;100.00;162504.66;5069191;28;20024;-58
2023/05/16 02:30:58;;;;;;;23.45;5.65;;;;;;;7.39;100.00;162496.59;5070408;28;20025;-58
2023/05/16 02:33:27;;;;;;;19.30;5.85;;;;;;;7.36;100.00;162488.50;5070538;28;20526;-57
2023/05/16 02:35:53;;;;;;;22.25;7.13;;;;;;;7.36;100.00;162488.50;5069484;28;20046;-58
2023/05/16 02:38:19;;;;;;;19.15;4.47;;;;;;;7.27;100.00;162466.94;5070351;28;20020;-58
2023/05/16 02:40:46;;;;;;;14.95;3.90;;;;;;;7.25;100.00;162460.22;5068904;28;20045;-58
2023/05/16 02:43:11;;;;;;;13.50;4.03;;;;;;;7.16;100.00;162437.31;5070694;28;20515;-59
2023/05/16 02:45:37;;;;;;;10.35;3.45;;;;;;;7.18;100.00;162441.34;5068635;28;20041;-58
2023/05/16 02:48:02;;;;;;;18.73;3.63;;;;;;;7.14;100.00;162431.94;5070882;28;20494;-58
2023/05/16 02:50:27;;;;;;;16.58;4.38;;;;;;;7.11;100.00;162425.19;5068971;28;20487;-58
2023/05/16 02:52:53;;;;;;;23.08;5.90;;;;;;;7.08;100.00;162415.78;5070189;28;20021;-58
2023/05/16 02:55:18;;;;;;;12.65;4.72;;;;;;;7.02;100.00;162399.63;5069285;28;20037;-59
2023/05/16 02:57:43;;;;;;;37.45;7.10;;;;;;;6.95;100.00;162383.47;5070142;28;20498;-59
2023/05/16 03:00:10;;;;;;;15.27;3.65;;;;;;;6.95;100.00;162382.09;5068642;28;20533;-59
2023/05/16 03:02:35;;;;;;;22.67;5.82;;;;;;;6.96;100.00;162386.13;5069971;28;20398;-58
2023/05/16 03:05:01;;;;;;;22.58;5.07;;;;;;;6.91;100.00;162372.66;5069192;28;20128;-59
2023/05/16 03:07:27;;;;;;;21.20;6.88;;;;;;;6.86;100.00;162359.22;5069942;28;20122;-59
2023/05/16 03:09:52;;;;;;;22.60;5.70;;;;;;;6.83;100.00;162351.13;5069089;28;20044;-59
2023/05/16 03:12:17;;;;;;;14.07;3.80;;;;;;;6.83;100.00;162351.13;5069813;28;20032;-59
2023/05/16 03:14:43;;;;;;;22.27;5.05;;;;;;;6.79;100.00;162340.38;5068327;28;20783;-60
2023/05/16 03:17:08;;;;;;;13.43;4.70;;;;;;;6.76;100.00;162332.28;5073619;28;20047;-59
2023/05/16 03:19:34;;;;;;;14.23;4.65;;;;;;;6.70;100.00;162316.13;5072662;28;20094;-58
2023/05/16 03:21:59;;;;;;;21.38;4.72;;;;;;;6.68;100.00;162312.09;5073928;28;20020;-59
2023/05/16 03:24:25;;;;;;;14.20;3.88;;;;;;;6.65;100.00;162305.38;5072335;28;20219;-58
2023/05/16 03:26:50;;;;;;;17.95;6.38;;;;;;;6.62;100.00;162297.28;5063557;28;20028;-58
2023/05/16 03:29:16;;;;;;;14.90;6.55;;;;;;;6.59;100.00;162289.19;5059332;28;20410;-58
2023/05/16 03:31:41;;;;;;;22.10;5.72;;;;;;;6.55;100.00;162278.44;5073472;28;20024;-58
2023/05/16 03:34:07;;;;;;;22.00;6.28;;;;;;;6.51;100.00;162269.00;5072528;28;20043;-58
2023/05/16 03:36:32;;;;;;;11.90;5.10;;;;;;;6.49;100.00;162262.28;5073500;28;20385;-58
2023/05/16 03:38:57;;;;;;;15.32;4.65;;;;;;;6.44;100.00;162248.84;5072460;28;20039;-58
2023/05/16 03:41:23;;;;;;;21.48;4.97;;;;;;;6.38;100.00;162234.03;5073886;28;20082;-58
2023/05/16 03:43:48;;;;;;;14.90;4.25;;;;;;;6.29;100.00;162211.09;5071737;28;20848;-59
2023/05/16 03:46:13;;;;;;;12.35;5.20;;;;;;;6.23;100.00;162193.63;5073552;28;20111;-58
2023/05/16 03:48:39;;;;;;;12.13;4.47;;;;;;;6.18;100.00;162181.50;5072210;28;20036;-58
2023/05/16 03:51:04;;;;;;;17.55;5.03;;;;;;;6.12;100.00;162166.69;5073169;28;20017;-58
2023/05/16 03:53:30;;;;;;;18.30;5.72;;;;;;;6.06;100.00;162149.22;5071969;28;20486;-58
2023/05/16 03:55:55;;;;;;;10.90;5.25;;;;;;;6.02;100.00;162141.13;5073665;28;20025;-57
2023/05/16 03:58:20;;;;;;;11.63;5.13;;;;;;;5.98;100.00;162128.97;5073272;28;20383;-58
2023/05/16 04:00:46;;;;;;;16.10;4.07;;;;;;;5.93;100.00;162115.53;5071444;28;20078;-57
2023/05/16 04:03:11;;;;;;;25.23;6.10;;;;;;;5.87;100.00;162100.72;5073261;28;20028;-57
2023/05/16 04:05:36;;;;;;;14.63;4.43;;;;;;;5.87;100.00;162102.06;5071677;28;20047;-59
2023/05/16 04:08:02;;;;;;;16.20;3.70;;;;;;;5.85;100.00;162095.31;5072466;28;20507;-58
2023/05/16 04:10:27;;;;;;;19.20;5.60;;;;;;;5.86;100.00;162098.00;5071439;28;20040;-58
2023/05/16 04:12:53;;;;;;;12.45;4.97;;;;;;;5.88;100.00;162103.41;5072872;28;20051;-58
2023/05/16 04:15:18;;;;;;;12.05;4.75;;;;;;;5.88;100.00;162103.41;5056409;28;20041;-61
2023/05/16 04:17:44;;;;;;;19.38;7.22;;;;;;;5.88;100.00;162103.41;5056429;28;20040;-58
2023/05/16 04:20:10;;;;;;;16.83;4.50;;;;;;;5.88;100.00;162103.41;5065677;28;20033;-58
2023/05/16 04:22:35;;;;;;;18.65;4.22;;;;;;;5.88;100.00;162103.41;5072292;28;20023;-58
2023/05/16 04:25:00;;;;;;;32.33;7.40;;;;;;;5.90;100.00;162108.81;5058541;28;20047;-58
2023/05/16 04:27:26;;;;;;;18.60;6.00;;;;;;;5.93;100.00;162115.53;5071290;28;20093;-58
2023/05/16 04:29:51;;;;;;;25.30;6.22;;;;;;;5.98;100.00;162128.97;5071251;28;20044;-59
2023/05/16 04:32:17;;;;;;;14.65;3.95;;;;;;;6.01;100.00;162138.44;5072291;28;20032;-58
2023/05/16 04:34:43;;;;;;;33.55;7.78;;;;;;;6.06;100.00;162149.22;5070993;28;20063;-58
2023/05/16 04:37:08;;;;;;;8.05;3.10;;;;;;;6.10;100.00;162159.97;5072311;28;20027;-59
2023/05/16 04:39:35;;;;;;;22.60;8.75;;;;;;;6.16;100.00;162176.13;5071103;28;20036;-58
2023/05/16 04:42:01;;;;;;;13.73;4.60;;;;;;;6.24;100.00;162197.66;5072789;28;20020;-58
2023/05/16 04:44:26;;;;;;;10.15;3.70;;;;;;;6.31;100.00;162216.50;5070440;28;20047;-59
2023/05/16 04:46:52;;;;;;;19.65;4.88;;;;;;;6.38;100.00;162232.63;5072703;28;20020;-59
2023/05/16 04:49:18;;;;;;;12.70;3.63;;;;;;;6.46;100.00;162254.19;5071019;28;20032;-59
2023/05/16 04:51:43;;;;;;;29.33;8.23;;;;;;;6.55;100.00;162278.44;5072084;28;20139;-59
2023/05/16 04:54:09;;;;;;;16.48;5.90;;;;;;;6.62;100.00;162297.28;5071214;28;20087;-59
2023/05/16 04:56:35;;;;;;;21.83;5.53;;;;;;;6.71;100.00;162320.16;5072328;28;20069;-58
2023/05/16 04:59:00;;;;;;;15.35;5.55;;;;;;;6.78;100.00;162337.66;5070741;28;20037;-58
2023/05/16 05:01:25;;;;;;;15.75;6.95;;;;;;;6.89;100.00;162365.94;5061818;28;20045;-58
2023/05/16 05:03:51;;;;;;;24.15;5.85;;;;;;;6.98;100.00;162391.53;5058120;28;20079;-60
2023/05/16 05:06:16;;;;;;;15.85;3.97;;;;;;;7.05;100.00;162407.66;5059616;28;20020;-59
2023/05/16 05:08:41;;;;;;;21.70;6.20;;;;;;;7.14;100.00;162431.94;5058376;28;20025;-59
2023/05/16 05:11:07;;;;;;;24.38;5.30;;;;;;;7.19;100.00;162445.38;5059089;28;20857;-59
2023/05/16 05:13:32;;;;;;;16.52;4.95;;;;;;;7.37;100.00;162492.50;5057928;28;20083;-58
2023/05/16 05:15:57;;;;;;;18.33;4.80;;;;;;;7.45;100.00;162514.06;5060044;28;20028;-59
2023/05/16 05:18:23;;;;;;;36.20;7.82;;;;;;;7.52;100.00;162531.59;5062858;28;20027;-58
2023/05/16 05:20:49;;;;;;;14.07;5.65;;;;;;;7.56;100.00;162542.38;5060772;28;20033;-59
2023/05/16 05:23:14;;;;;;;13.68;4.53;;;;;;;7.66;100.00;162566.63;5062406;28;20024;-59
2023/05/16 05:25:40;;;;;;;11.68;4.65;;;;;;;7.74;100.00;162588.19;5060769;28;20040;-58
2023/05/16 05:28:05;;;;;;;15.18;5.93;;;;;;;7.80;100.00;162604.34;5069379;28;20429;-58
2023/05/16 05:30:31;;;;;;;26.02;4.78;;;;;;;7.90;100.00;162629.94;5070125;28;20040;-58
2023/05/16 05:32:56;;;;;;;18.33;3.78;;;;;;;7.93;100.00;162639.38;5071960;28;20020;-58
2023/05/16 05:35:21;;;;;;;14.00;5.25;;;;;;;8.00;100.00;162655.59;5069603;28;20040;-58
2023/05/16 05:37:47;;;;;;;13.75;4.15;;;;;;;7.93;100.00;162639.38;5070829;28;20020;-58
2023/05/16 05:40:12;;;;;;;15.15;5.43;;;;;;;8.13;100.00;162689.22;5069858;28;20044;-58
2023/05/16 05:42:37;;;;;;;13.65;4.07;;;;;;;8.20;100.00;162709.47;5070744;28;20027;-58
2023/05/16 05:45:03;;;;;;;20.48;3.17;;;;;;;8.28;100.00;162728.34;5069855;28;20049;-58
2023/05/16 05:47:29;;;;;;;16.42;5.22;;;;;;;8.38;100.00;162755.25;5071370;28;20028;-58
2023/05/16 05:49:55;;;;;;;14.20;3.30;;;;;;;8.45;100.00;162772.81;5069624;28;20036;-58
2023/05/16 05:52:20;;;;;;;19.75;6.90;;;;;;;8.50;100.00;162787.72;5067920;28;20024;-58
2023/05/16 05:54:47;;;;;;;15.52;5.82;;;;;;;8.60;100.00;162811.97;5069101;28;20044;-58
2023/05/16 05:57:12;;;;;;;9.52;3.92;;;;;;;8.66;100.00;162828.16;5066907;28;20100;-58
2023/05/16 05:59:37;;;;;;;13.50;3.38;;;;;;;8.76;100.00;162855.09;5066131;28;20495;-58
2023/05/16 06:02:03;;;;;;;18.63;3.97;;;;;;;8.85;100.00;162878.03;5070994;28;20070;-58
2023/05/16 06:04:28;;;;;;;12.85;4.13;;;;;;;8.94;100.00;162900.94;5068809;28;20047;-58
2023/05/16 06:06:54;;;;;;;14.10;4.30;;;;;;;9.10;100.00;162944.09;5071113;28;20020;-58
2023/05/16 06:09:20;;;;;;;13.10;2.72;;;;;;;9.17;100.00;162962.97;5069842;28;20051;-58
2023/05/16 06:11:46;;;;;;;11.32;3.85;;;;;;;9.17;100.00;162962.97;5070127;28;20039;-58
2023/05/16 06:14:14;;;;;;;23.48;4.45;;;;;;;9.26;100.00;162984.56;5069870;28;20634;-58
2023/05/16 06:16:40;;;;;;;12.82;5.15;;;;;;;9.40;100.00;163020.94;5068806;28;20031;-58
2023/05/16 06:19:05;;;;;;;16.83;4.82;;;;;;;9.49;100.00;163046.56;5066599;28;20052;-58
2023/05/16 06:21:32;;;;;;;16.38;3.80;;;;;;;9.48;100.00;163043.91;5070526;28;20017;-58
2023/05/16 06:23:57;;;;;;;18.58;4.63;;;;;;;9.60;100.00;163073.56;5069400;28;20123;-58
2023/05/16 06:26:23;;;;;;;13.30;5.45;;;;;;;9.75;100.00;163112.72;5070781;28;20035;-58
2023/05/16 06:28:48;;;;;;;15.73;3.60;;;;;;;9.78;100.00;163122.16;5068986;28;20051;-58
2023/05/16 06:31:14;;;;;;;13.73;3.60;;;;;;;9.87;100.00;163143.69;5070770;28;20020;-58
2023/05/16 06:33:39;;;;;;;12.13;3.55;;;;;;;9.99;100.00;163176.09;5069018;28;20391;-58
2023/05/16 06:36:05;;;;;;;21.67;6.18;;;;;;;10.03;100.00;163185.56;5070985;28;20074;-58
2023/05/16 06:38:30;;;;;;;13.25;4.22;;;;;;;10.26;100.00;163246.25;5069068;28;20032;-58
2023/05/16 06:40:56;;;;;;;15.70;5.75;;;;;;;10.45;100.00;163297.63;5070646;28;20021;-58
2023/05/16 06:43:21;;;;;;;13.98;3.45;;;;;;;10.72;100.00;163367.78;5070362;28;20395;-58
2023/05/16 06:45:46;;;;;;;10.93;2.97;;;;;;;10.94;100.00;163424.50;5069186;28;20047;-58
2023/05/16 06:48:16;;;;;;;8.13;3.15;;;;;;;11.08;100.00;163462.28;5070935;28;20017;-58
2023/05/16 06:50:41;;;;;;;14.77;3.20;;;;;;;11.38;100.00;163540.63;5069574;28;20040;-58
2023/05/16 06:53:07;;;;;;;11.73;3.42;;;;;;;11.80;100.00;163648.69;5075011;28;20032;-58
2023/05/16 06:55:33;;;;;;;10.50;4.18;;;;;;;12.30;100.00;163781.13;5073138;28;20056;-58
2023/05/16 06:57:58;;;;;;;10.80;2.42;;;;;;;12.53;100.00;163841.91;5074607;28;20025;-58
2023/05/16 07:00:24;;;;;;;9.10;3.03;;;;;;;12.81;100.00;163913.56;5073033;28;20517;-58
2023/05/16 07:02:50;;;;;;;7.43;2.03;;;;;;;13.11;100.00;163991.97;5074808;28;20068;-59
2023/05/16 07:05:15;;;;;;;16.88;4.07;;;;;;;13.08;100.00;163985.22;5073080;28;20059;-59
2023/05/16 07:07:41;;;;;;;9.85;2.45;;;;;;;12.69;100.00;163883.84;5074524;28;20368;-59
2023/05/16 07:10:07;;;;;;;11.48;3.40;;;;;;;12.26;100.00;163770.28;5073084;28;20040;-59
2023/05/16 07:12:32;;;;;;;11.00;3.72;;;;;;;12.11;100.00;163729.75;5073824;28;20031;-59
2023/05/16 07:14:57;;;;;;;15.45;3.88;;;;;;;11.88;100.00;163671.63;5073058;28;20043;-58
2023/05/16 07:17:23;;;;;;;9.73;2.42;;;;;;;12.06;100.00;163718.97;5074505;28;20032;-59
2023/05/16 07:19:49;;;;;;;10.88;2.47;;;;;;;11.93;100.00;163682.41;5072407;28;20037;-59
2023/05/16 07:22:14;;;;;;;8.27;4.05;;;;;;;12.04;100.00;163712.22;5074150;28;20035;-59
2023/05/16 07:24:40;;;;;;;10.90;3.83;;;;;;;11.74;100.00;163635.16;5072487;28;20041;-59
2023/05/16 07:27:05;;;;;;;11.90;4.72;;;;;;;11.90;100.00;163675.69;5074001;28;20024;-59
2023/05/16 07:29:31;;;;;;;8.88;2.65;;;;;;;12.11;100.00;163729.75;5072587;28;20040;-59
2023/05/16 07:31:56;;;;;;;3.72;1.70;;;;;;;11.94;100.00;163685.13;5074001;28;20035;-59
2023/05/16 07:34:21;;;;;;;16.60;3.85;;;;;;;11.83;100.00;163656.75;5072226;28;20403;-59
2023/05/16 07:36:47;;;;;;;5.95;2.50;;;;;;;11.91;100.00;163678.38;5073979;28;20024;-58
2023/05/16 07:39:13;;;;;;;12.50;2.92;;;;;;;12.04;100.00;163713.56;5056184;28;20349;-59
2023/05/16 07:41:38;;;;;;;4.32;1.83;;;;;;;12.18;100.00;163748.66;5077533;28;20065;-59
2023/05/16 07:44:03;;;;;;;13.95;2.83;;;;;;;12.57;100.00;163850.03;5067517;28;20388;-59
2023/05/16 07:46:29;;;;;;;8.55;3.72;;;;;;;12.77;100.00;163902.75;5053657;28;20025;-59
2023/05/16 07:48:54;;;;;;;6.40;2.05;;;;;;;12.67;100.00;163878.44;5052247;28;20044;-59
2023/05/16 07:51:19;;;;;;;11.77;3.22;;;;;;;12.67;100.00;163878.44;5053529;28;20054;-59
2023/05/16 07:53:45;;;;;;;10.57;2.30;;;;;;;12.78;100.00;163905.44;5052039;28;20021;-59
2023/05/16 07:56:11;;;;;;;8.50;3.33;;;;;;;12.93;100.00;163944.66;5053546;28;20032;-58
2023/05/16 07:58:37;;;;;;;6.55;2.47;;;;;;;13.32;100.00;164047.41;5052244;28;20425;-59
2023/05/16 08:01:03;;;;;;;9.75;2.25;;;;;;;13.64;100.00;164132.63;5053312;28;20235;-59
2023/05/16 08:03:28;;;;;;;17.38;3.70;;;;;;;13.75;100.00;164161.03;5052975;28;20025;-59
2023/05/16 08:05:53;;;;;;;12.98;1.90;;;;;;;13.54;100.00;164104.25;5051678;28;20032;-59
2023/05/16 08:08:19;;;;;;;6.20;2.25;;;;;;;12.95;100.00;163951.41;5053461;28;20017;-58
2023/05/16 08:10:44;;;;;;;12.13;3.17;;;;;;;12.80;100.00;163910.84;5051349;28;20040;-59
2023/05/16 08:13:09;;;;;;;9.18;2.83;;;;;;;12.65;100.00;163873.00;5053168;28;20106;-59
2023/05/16 08:15:35;;;;;;;6.10;2.50;;;;;;;12.79;100.00;163908.13;5051684;28;20037;-59
2023/05/16 08:18:01;;;;;;;9.55;2.05;;;;;;;12.87;100.00;163929.78;5053008;28;20028;-59
2023/05/16 08:20:26;;;;;;;8.25;2.97;;;;;;;12.81;100.00;163913.56;5051513;28;20044;-59
2023/05/16 08:22:52;;;;;;;10.38;3.05;;;;;;;12.77;100.00;163902.75;5053129;28;20434;-59
2023/05/16 08:25:18;;;;;;;8.35;2.55;;;;;;;12.87;100.00;163929.78;5051547;28;20049;-59
2023/05/16 08:27:45;;;;;;;10.82;2.65;;;;;;;12.91;100.00;163940.63;5052767;28;20324;-59
2023/05/16 08:30:11;;;;;;;5.13;1.83;;;;;;;12.80;100.00;163912.22;5051682;28;20174;-58
2023/05/16 08:32:36;;;;;;;5.45;1.50;;;;;;;12.84;100.00;163921.69;5052707;28;20029;-59
2023/05/16 08:35:02;;;;;;;6.40;1.40;;;;;;;12.98;100.00;163959.53;5051714;28;20040;-59
2023/05/16 08:37:27;;;;;;;10.75;2.33;;;;;;;13.06;100.00;163979.78;5052569;28;20498;-59
2023/05/16 08:39:52;;;;;;;3.80;1.50;;;;;;;13.14;100.00;164000.09;5051203;28;20103;-59
2023/05/16 08:42:18;;;;;;;11.32;2.63;;;;;;;13.38;100.00;164062.25;5052859;28;20013;-59
2023/05/16 08:44:43;;;;;;;14.07;2.72;;;;;;;13.72;100.00;164151.56;5066887;28;20040;-58
2023/05/16 08:47:15;;;;;;;16.85;4.88;;;;;;;13.90;100.00;164198.91;5072343;28;20032;-59
2023/05/16 08:49:41;;;;;;;9.02;2.60;;;;;;;13.85;100.00;164186.72;5070698;28;20036;-59
2023/05/16 08:52:08;;;;;;;5.05;1.98;;;;;;;13.66;100.00;164136.69;5072175;28;20032;-59
2023/05/16 08:54:35;;;;;;;8.70;3.95;;;;;;;13.42;100.00;164073.13;5068772;28;20037;-59
2023/05/16 08:57:02;;;;;;;10.05;2.20;;;;;;;13.18;100.00;164012.22;5072156;28;20025;-59
2023/05/16 08:59:28;;;;;;;7.68;1.67;;;;;;;13.15;100.00;164002.75;5070747;28;20029;-59
2023/05/16 09:01:57;;;;;;;6.68;2.03;;;;;;;13.38;100.00;164062.25;5071580;28;20044;-59
2023/05/16 09:04:24;;;;;;;6.00;2.40;;;;;;;13.80;100.00;164173.22;5070932;28;20122;-58
2023/05/16 09:06:49;;;;;;;10.57;1.60;;;;;;;13.94;100.00;164209.69;5072614;28;20012;-59
2023/05/16 09:09:15;;;;;;;13.05;2.20;;;;;;;14.00;100.00;164224.59;5070427;28;20514;-59
2023/05/16 09:11:41;;;;;;;5.85;1.50;;;;;;;14.07;100.00;164243.53;5071846;28;20025;-59
2023/05/16 09:14:06;;;;;;;6.22;2.25;;;;;;;14.35;100.00;164317.94;5070262;28;20071;-59
2023/05/16 09:16:32;;;;;;;6.65;2.03;;;;;;;14.41;100.00;164332.78;5070056;28;20044;-59
2023/05/16 09:18:59;;;;;;;12.77;3.10;;;;;;;14.38;100.00;164324.72;5071955;28;20032;-59
2023/05/16 09:21:32;;;;;;;10.20;2.25;;;;;;;14.63;100.00;164389.66;5070182;28;20048;-59
2023/05/16 09:24:08;;;;;;;6.68;2.38;;;;;;;14.85;100.00;164447.88;5071459;28;20068;-57
2023/05/16 09:26:36;;;;;;;6.07;1.90;;;;;;;15.10;100.00;164512.84;5070320;28;20133;-57
2023/05/16 09:29:01;;;;;;;2.92;1.63;;;;;;;14.92;100.00;164466.81;5072000;28;20024;-57
2023/05/16 09:31:35;;;;;;;4.82;1.50;;;;;;;15.15;100.00;164527.72;5069552;28;20036;-57
2023/05/16 09:34:01;;;;;;;6.68;2.13;;;;;;;14.80;100.00;164434.34;5071938;28;20026;-59
2023/05/16 09:36:26;;;;;;;9.50;1.60;;;;;;;14.17;100.00;164270.59;5070068;28;20123;-59
2023/05/16 09:38:52;;;;;;;9.13;2.67;;;;;;;13.73;100.00;164154.28;5071318;28;20024;-59
2023/05/16 09:41:18;;;;;;;4.55;1.73;;;;;;;13.29;100.00;164040.59;5070246;28;20113;-59
2023/05/16 09:43:43;;;;;;;6.25;2.58;;;;;;;12.83;100.00;163920.31;5071131;28;20040;-59
2023/05/16 09:46:15;;;;;;;10.25;2.85;;;;;;;12.85;100.00;163924.34;5069781;28;20037;-59
2023/05/16 09:48:45;;;;;;;4.07;2.40;;;;;;;13.18;100.00;164012.22;5071243;28;20100;-59
2023/05/16 09:51:11;;;;;;;3.47;2.15;;;;;;;13.91;100.00;164202.94;5070027;28;20044;-59
2023/05/16 09:53:37;;;;;;;4.38;1.58;;;;;;;14.27;100.00;164297.63;5070596;28;20078;-59
2023/05/16 09:56:05;;;;;;;12.82;2.30;;;;;;;13.83;100.00;164181.31;5070117;28;20052;-59
2023/05/16 09:58:31;;;;;;;4.38;2.35;;;;;;;13.50;100.00;164094.78;5071357;28;20031;-59
2023/05/16 10:00:58;;;;;;;4.85;1.90;;;;;;;13.52;100.00;164100.16;5069430;28;20052;-59
2023/05/16 10:03:24;;;;;;;6.75;2.00;;;;;;;13.56;100.00;164111.00;5071165;28;20426;-59
2023/05/16 10:05:51;;;;;;;4.25;1.65;;;;;;;13.72;100.00;164152.91;5069782;28;20044;-59
2023/05/16 10:08:20;;;;;;;6.63;2.25;;;;;;;14.15;100.00;164265.19;5069697;28;20055;-59
2023/05/16 10:10:46;;;;;;;3.00;1.35;;;;;;;14.26;100.00;164294.91;5060984;28;20410;-58
2023/05/16 10:13:13;;;;;;;6.03;2.70;;;;;;;14.74;100.00;164419.47;5068926;28;20021;-58
2023/05/16 10:15:38;;;;;;;3.90;1.63;;;;;;;14.54;100.00;164366.63;5068453;28;20059;-59
2023/05/16 10:18:10;;;;;;;10.10;2.47;;;;;;;14.52;100.00;164362.59;5070001;28;20475;-59
2023/05/16 10:20:37;;;;;;;9.73;1.90;;;;;;;14.44;100.00;164340.94;5067270;28;20648;-58
2023/05/16 10:23:04;;;;;;;4.57;2.45;;;;;;;14.22;100.00;164282.78;5070072;28;20025;-59
2023/05/16 10:25:38;;;;;;;8.68;2.22;;;;;;;13.90;100.00;164200.25;5068515;28;20052;-58
2023/05/16 10:28:03;;;;;;;15.38;3.63;;;;;;;13.88;100.00;164193.47;5069608;28;20029;-59
2023/05/16 10:30:32;;;;;;;5.35;2.15;;;;;;;13.99;100.00;164221.88;5067725;28;20070;-59
2023/05/16 10:32:58;;;;;;;7.22;1.98;;;;;;;14.50;100.00;164357.16;5070201;28;20490;-59
2023/05/16 10:35:23;;;;;;;5.28;1.98;;;;;;;15.35;100.00;164579.16;5067000;28;20123;-59
2023/05/16 10:37:50;;;;;;;4.13;2.25;;;;;;;15.60;100.00;164644.16;5069960;28;20089;-59
2023/05/16 10:40:17;;;;;;;2.70;1.48;;;;;;;15.29;100.00;164562.94;5068609;28;20442;-59
2023/05/16 10:43:02;;;;;;;4.68;1.15;;;;;;;15.31;100.00;164568.31;5069629;28;20055;-59
2023/05/16 10:45:29;;;;;;;3.58;2.08;;;;;;;15.63;100.00;164652.25;5064669;28;20053;-59
2023/05/16 10:47:58;;;;;;;4.72;2.20;;;;;;;15.84;100.00;164709.19;5068637;28;20032;-63
2023/05/16 10:50:33;;;;;;;9.75;2.15;;;;;;;15.20;100.00;164541.28;5067556;28;20202;-58
2023/05/16 10:53:22;;;;;;;8.63;2.63;;;;;;;14.56;100.00;164373.38;5052636;28;20028;-60
2023/05/16 10:55:57;;;;;;;3.45;1.33;;;;;;;14.19;100.00;164275.97;5048451;28;20071;-59
2023/05/16 10:58:43;;;;;;;6.43;2.30;;;;;;;14.14;100.00;164262.47;5050232;28;20399;-59
2023/05/16 11:01:28;;;;;;;2.40;1.50;;;;;;;14.50;100.00;164357.16;5048016;28;20056;-59
2023/05/16 11:03:56;;;;;;;5.22;1.73;;;;;;;14.41;100.00;164332.78;5050030;28;20029;-59
2023/05/16 11:06:25;;;;;;;3.10;1.13;;;;;;;14.72;100.00;164414.03;5048829;28;20041;-59
2023/05/16 11:09:25;;;;;;;3.15;1.40;;;;;;;15.12;100.00;164518.22;5049948;28;20059;-59
2023/05/16 11:11:51;;;;;;;7.85;1.85;;;;;;;15.20;100.00;164541.28;5048198;28;20048;-58
2023/05/16 11:14:36;;;;;;;5.32;2.35;;;;;;;15.48;100.00;164613.03;5048709;28;20036;-59